createdAt,value
2022-11-20T05:03:58.151Z,98.41
2022-11-20T05:08:09.652Z,98.34
2022-11-20T05:12:21.200Z,98.92
2022-11-20T05:16:36.277Z,98.56
2022-11-20T05:20:47.752Z,98.99
2022-11-20T05:24:59.249Z,98.84
2022-11-20T05:29:12.846Z,99.32
2022-11-20T05:33:24.372Z,99.13
2022-11-20T05:37:35.887Z,99.76
2022-11-20T05:41:47.430Z,99.96
2022-11-20T05:45:58.926Z,100.00
2022-11-20T05:50:10.587Z,100.00
2022-11-20T05:54:22.105Z,100.00
2022-11-20T05:58:34.492Z,100.00
2022-11-20T06:02:46.403Z,100.00
2022-11-20T06:06:57.993Z,100.00
2022-11-20T06:11:11.405Z,100.00
2022-11-20T06:15:22.945Z,100.00
2022-11-20T06:19:34.459Z,100.00
2022-11-20T06:23:46.964Z,100.00
2022-11-20T06:27:58.514Z,100.00
2022-11-20T06:32:10.112Z,99.93
2022-11-20T06:36:23.620Z,99.92
2022-11-20T06:40:35.143Z,100.00
2022-11-20T06:44:46.779Z,99.65
2022-11-20T06:48:59.299Z,99.95
2022-11-20T06:53:10.791Z,100.00
2022-11-20T06:57:22.341Z,100.00
2022-11-20T07:01:34.240Z,100.00
2022-11-20T07:05:46.849Z,100.00
2022-11-20T07:09:58.321Z,100.00
2022-11-20T07:14:09.819Z,100.00
2022-11-20T07:18:21.430Z,100.00
2022-11-20T07:22:32.912Z,100.00
2022-11-20T07:26:47.377Z,100.00
2022-11-20T07:30:58.906Z,99.90
2022-11-20T07:35:10.416Z,100.00
2022-11-20T07:39:22.246Z,99.73
2022-11-20T07:43:38.381Z,99.73
2022-11-20T07:47:52.460Z,100.00
2022-11-20T07:52:05.297Z,100.00
2022-11-20T07:56:17.075Z,98.20
2022-11-20T08:00:28.796Z,98.47
2022-11-20T08:04:40.324Z,98.47
2022-11-20T08:08:52.230Z,97.97
2022-11-20T08:13:22.373Z,98.56
2022-11-20T08:17:34.074Z,97.53
2022-11-20T08:21:45.820Z,98.27
2022-11-20T08:25:57.340Z,98.49
2022-11-20T08:30:09.502Z,98.55
2022-11-20T08:34:20.989Z,98.60
2022-11-20T08:38:32.657Z,98.11
2022-11-20T08:42:51.053Z,97.45
2022-11-20T08:47:02.578Z,97.06
2022-11-20T08:51:14.417Z,97.21
2022-11-20T08:55:25.888Z,96.57
2022-11-20T09:00:04.576Z,96.96
2022-11-20T09:04:08.953Z,96.24
2022-11-20T09:08:20.468Z,96.51
2022-11-20T09:12:31.947Z,95.79
2022-11-20T09:16:45.365Z,94.64
2022-11-20T09:20:58.849Z,96.04
2022-11-20T09:25:10.581Z,95.90
2022-11-20T09:29:22.292Z,94.51
2022-11-20T09:33:34.111Z,95.02
2022-11-20T09:37:46.137Z,93.67
2022-11-20T09:42:23.117Z,92.01
2022-11-20T09:46:54.256Z,93.73
2022-11-20T09:51:23.189Z,92.61
2022-11-20T09:55:36.624Z,92.77
2022-11-20T09:59:53.729Z,89.83
2022-11-20T10:04:16.653Z,89.38
2022-11-20T10:08:45.959Z,89.58
2022-11-20T10:13:26.354Z,87.04
2022-11-20T10:17:37.793Z,85.91
2022-11-20T10:22:14.077Z,84.92
2022-11-20T10:26:41.077Z,84.47
2022-11-20T10:31:03.894Z,84.43
2022-11-20T10:35:19.258Z,82.83
2022-11-20T10:40:12.646Z,84.35
2022-11-20T10:44:52.307Z,84.16
2022-11-20T10:49:13.965Z,83.62
2022-11-20T10:53:46.450Z,84.57
2022-11-20T10:58:17.579Z,83.04
2022-11-20T11:02:34.401Z,83.31
2022-11-20T11:06:49.136Z,83.79
2022-11-20T11:11:08.129Z,82.45
2022-11-20T11:15:33.011Z,81.56
2022-11-20T11:19:44.546Z,78.92
2022-11-20T11:24:26.834Z,76.83
2022-11-20T11:28:36.605Z,76.17
2022-11-20T11:32:48.595Z,76.60
2022-11-20T11:37:02.645Z,76.39
2022-11-20T11:41:20.120Z,76.33
2022-11-20T11:45:31.846Z,76.81
2022-11-20T11:49:43.357Z,76.92
2022-11-20T11:53:55.041Z,75.18
2022-11-20T11:58:35.892Z,75.77
2022-11-20T12:02:49.140Z,75.39
2022-11-20T12:07:46.468Z,74.14
2022-11-20T12:12:28.374Z,72.81
2022-11-20T12:16:40.381Z,71.60
2022-11-20T12:21:12.277Z,71.72
2022-11-20T12:25:30.957Z,70.31
2022-11-20T12:30:14.783Z,69.65
2022-11-20T12:34:46.619Z,68.60
2022-11-20T12:39:16.429Z,68.88
2022-11-20T12:43:50.628Z,68.87
2022-11-20T12:48:21.015Z,69.38
2022-11-20T12:52:54.009Z,68.89
2022-11-20T12:57:29.177Z,70.39
2022-11-20T13:01:56.012Z,70.40
2022-11-20T13:06:13.187Z,70.38
2022-11-20T13:10:36.934Z,70.75
2022-11-20T13:14:58.961Z,72.48
2022-11-20T13:19:13.394Z,73.57
2022-11-20T13:23:27.470Z,72.26
2022-11-20T13:27:48.157Z,72.11
2022-11-20T13:32:08.308Z,72.99
2022-11-20T13:36:29.282Z,73.48
2022-11-20T13:41:21.941Z,72.37
2022-11-20T13:45:33.607Z,73.95
2022-11-20T13:49:45.930Z,73.74
2022-11-20T13:54:53.333Z,74.58
2022-11-20T13:59:29.528Z,74.35
2022-11-20T14:04:05.044Z,73.91
2022-11-20T14:08:26.250Z,74.46
2022-11-20T14:12:37.840Z,74.14
2022-11-20T14:16:50.709Z,74.47
2022-11-20T14:21:03.461Z,73.01
2022-11-20T14:25:15.168Z,73.08
2022-11-20T14:29:39.925Z,72.84
2022-11-20T14:33:53.976Z,73.54
2022-11-20T14:38:12.866Z,72.66
2022-11-20T14:42:29.680Z,73.61
2022-11-20T14:46:41.467Z,74.10
2022-11-20T14:50:53.009Z,73.98
2022-11-20T14:55:05.016Z,74.66
2022-11-20T14:59:25.312Z,75.64
2022-11-20T15:03:41.693Z,75.65
2022-11-20T15:08:13.712Z,75.40
2022-11-20T15:12:25.456Z,76.09
2022-11-20T15:16:37.219Z,76.05
2022-11-20T15:20:49.640Z,77.12
2022-11-20T15:25:01.163Z,77.79
2022-11-20T15:29:15.184Z,77.87
2022-11-20T15:33:26.931Z,78.09
2022-11-20T15:37:39.309Z,78.47
2022-11-20T15:41:50.836Z,77.84
2022-11-20T15:46:16.481Z,77.99
2022-11-20T15:50:35.107Z,78.09
2022-11-20T15:54:46.670Z,79.34
2022-11-20T15:58:58.203Z,80.04
2022-11-20T16:03:13.789Z,81.68
2022-11-20T16:07:25.321Z,82.74
2022-11-20T16:11:37.691Z,83.48
2022-11-20T16:15:57.394Z,84.19
2022-11-20T16:20:15.064Z,84.95
2022-11-20T16:24:26.598Z,86.79
2022-11-20T16:28:38.154Z,86.96
2022-11-20T16:32:49.738Z,89.08
2022-11-20T16:37:01.268Z,88.99
2022-11-20T16:41:15.633Z,88.76
2022-11-20T16:45:32.635Z,90.01
2022-11-20T16:49:45.324Z,90.10
2022-11-20T16:53:57.463Z,89.74
2022-11-20T16:58:09.358Z,89.83
2022-11-20T17:02:20.870Z,90.43
2022-11-20T17:06:37.722Z,90.02
2022-11-20T17:10:49.208Z,91.01
2022-11-20T17:15:00.755Z,91.56
2022-11-20T17:19:12.460Z,92.48
2022-11-20T17:23:24.213Z,92.93
2022-11-20T17:27:35.761Z,94.44
2022-11-20T17:31:48.730Z,94.54
2022-11-20T17:36:00.286Z,94.47
2022-11-20T17:40:11.903Z,94.31
2022-11-20T17:44:23.833Z,95.76
2022-11-20T17:48:36.259Z,95.66
2022-11-20T17:52:47.874Z,95.55
2022-11-20T17:57:18.180Z,95.63
2022-11-20T18:01:29.768Z,96.91
2022-11-20T18:05:41.352Z,96.76
2022-11-20T18:09:52.950Z,97.11
2022-11-20T18:14:25.623Z,97.25
2022-11-20T18:18:37.390Z,96.86
2022-11-20T18:22:48.905Z,97.72
2022-11-20T18:27:00.556Z,97.53
2022-11-20T18:31:13.137Z,98.10
2022-11-20T18:35:26.762Z,98.38
2022-11-20T18:39:38.309Z,98.85
2022-11-20T18:44:08.431Z,99.71
2022-11-20T18:48:19.995Z,99.61
2022-11-20T18:52:35.150Z,99.87
2022-11-20T18:56:47.364Z,99.38
2022-11-20T19:01:07.188Z,100.00
2022-11-20T19:05:18.928Z,99.68
2022-11-20T19:09:30.915Z,99.56
2022-11-20T19:13:42.445Z,99.88
2022-11-20T19:17:54.038Z,99.19
2022-11-20T19:22:05.600Z,99.32
2022-11-20T19:26:18.465Z,99.99
2022-11-20T19:30:30.054Z,99.51
2022-11-20T19:34:41.638Z,98.59
2022-11-20T19:38:54.165Z,99.27
2022-11-20T19:43:05.746Z,99.05
2022-11-20T19:47:17.296Z,99.32
2022-11-20T19:51:32.025Z,99.64
2022-11-20T19:55:54.283Z,99.37
2022-11-20T20:00:06.389Z,99.67
2022-11-20T20:04:18.573Z,100.00
2022-11-20T20:08:30.651Z,100.00
2022-11-20T20:12:42.153Z,100.00
2022-11-20T20:16:53.637Z,100.00
2022-11-20T20:21:06.969Z,100.00
2022-11-20T20:25:18.544Z,99.33
2022-11-20T20:29:30.066Z,98.63
2022-11-20T20:33:42.445Z,98.42
2022-11-20T20:37:54.034Z,97.88
2022-11-20T20:42:05.662Z,97.95
2022-11-20T21:11:01.423Z,98.47
2022-11-20T21:15:15.770Z,98.74
2022-11-20T21:19:27.801Z,98.54
2022-11-20T21:23:39.993Z,98.20
2022-11-20T21:27:51.602Z,97.94
2022-11-20T21:32:03.219Z,98.60
2022-11-20T21:36:17.465Z,98.16
2022-11-20T21:40:29.145Z,98.13
2022-11-20T21:44:46.691Z,98.25
2022-11-20T21:48:58.803Z,98.58
2022-11-20T21:53:10.371Z,97.70
2022-11-20T21:57:21.923Z,98.50
2022-11-20T22:01:33.590Z,98.42
2022-11-20T22:05:54.334Z,98.80
2022-11-20T22:10:06.276Z,98.54
2022-11-20T22:14:20.957Z,98.51
2022-11-20T22:18:32.898Z,98.67
2022-11-20T22:22:44.547Z,98.88
2022-11-20T22:26:56.118Z,99.26
